Airport View

Enter AWOS ICAO identifier for current METAR.

ex. KFNL

K5SM 080554Z AUTO 26008KT 230V300 10SM CLR 11/M15 A3060 RMK AO2

8 Aug 2020 06:34

Frequency: 126.075

Phone: 970-384-3380

Other Area AWOS: KRIL - KEGE - KASE - KEEO

TAF KRIL 080528Z 0806/0906 09004KT P6SM SCT050 FM081800 27011KT P6SM FEW180 FEW250 FM082100 26012G19KT P6SM SCT250 FM090200 20009KT P6SM FEW250